Time;durP1;ratioP1;P1;durP2;ratioP2;P2;SDS_P1;SDS_P2;PMS_P1;PMS_P2;Temp;Humidity;BMP_temperature;BMP_pressure;BME280_temperature;BME280_humidity;BME280_pressure;Samples;Min_cycle;Max_cycle;Signal;HPM_P1;HPM_P2
2023/03/27 00:00:19;;;;;;;14.50;9.68;;;3.30;99.90;;;;;;5131384;28;20080;-76
2023/03/27 00:02:48;;;;;;;17.63;10.00;;;3.30;99.90;;;;;;5131952;28;20027;-74
2023/03/27 00:05:15;;;;;;;16.88;7.88;;;3.30;99.90;;;;;;5133658;27;20030;-74
2023/03/27 00:07:41;;;;;;;19.48;7.70;;;3.20;99.90;;;;;;5136162;27;20023;-75
2023/03/27 00:10:08;;;;;;;18.35;8.18;;;3.20;99.90;;;;;;5135254;27;20435;-75
2023/03/27 00:12:34;;;;;;;12.27;7.13;;;3.10;99.90;;;;;;5135750;27;20421;-75
2023/03/27 00:15:00;;;;;;;17.13;7.15;;;3.00;99.90;;;;;;5116832;27;20027;-77
2023/03/27 00:17:26;;;;;;;13.68;9.32;;;3.00;99.90;;;;;;5135819;27;20137;-74
2023/03/27 00:19:52;;;;;;;19.63;10.13;;;2.90;99.90;;;;;;5135663;27;20170;-75
2023/03/27 00:22:18;;;;;;;17.00;10.27;;;3.00;99.90;;;;;;5134962;27;20043;-75
2023/03/27 00:24:44;;;;;;;20.50;9.93;;;3.00;99.90;;;;;;5135674;27;20035;-75
2023/03/27 00:27:10;;;;;;;17.67;9.68;;;3.00;99.90;;;;;;5134842;27;20148;-75
2023/03/27 00:29:36;;;;;;;17.85;8.00;;;3.00;99.90;;;;;;5135532;27;20144;-74
2023/03/27 00:32:03;;;;;;;14.45;8.05;;;3.00;99.90;;;;;;5134725;27;20057;-78
2023/03/27 00:34:30;;;;;;;16.45;8.57;;;3.00;99.90;;;;;;5116822;27;20038;-76
2023/03/27 00:36:56;;;;;;;20.70;9.00;;;3.10;99.90;;;;;;5135231;27;20302;-74
2023/03/27 00:39:22;;;;;;;15.45;7.88;;;3.00;99.90;;;;;;5134502;27;20023;-75
2023/03/27 00:41:48;;;;;;;14.02;7.35;;;3.00;99.90;;;;;;5134857;27;20046;-75
2023/03/27 00:44:22;;;;;;;20.00;8.45;;;2.90;99.90;;;;;;5134439;27;20422;-75
2023/03/27 00:46:49;;;;;;;20.45;10.38;;;2.90;99.90;;;;;;5134981;27;20352;-75
2023/03/27 00:49:16;;;;;;;18.85;10.57;;;2.90;99.90;;;;;;5115935;27;20023;-74
2023/03/27 00:51:48;;;;;;;19.58;9.85;;;2.80;99.90;;;;;;5134916;27;20023;-74
2023/03/27 00:54:20;;;;;;;18.30;8.45;;;2.80;99.90;;;;;;5134414;27;20448;-76
2023/03/27 00:56:48;;;;;;;15.60;8.50;;;2.80;99.90;;;;;;5134694;27;20479;-76
2023/03/27 00:59:18;;;;;;;13.05;8.57;;;2.70;99.90;;;;;;5134335;27;20380;-76
2023/03/27 01:01:44;;;;;;;20.85;9.57;;;2.70;99.90;;;;;;5134814;27;20059;-75
2023/03/27 01:04:10;;;;;;;17.77;9.43;;;2.70;99.90;;;;;;5115750;27;20523;-76
2023/03/27 01:06:37;;;;;;;20.80;9.13;;;2.70;99.90;;;;;;5134656;27;20132;-76
2023/03/27 01:09:03;;;;;;;17.83;9.73;;;2.70;99.90;;;;;;5134537;27;20034;-79
2023/03/27 01:11:40;;;;;;;15.68;8.38;;;2.60;99.90;;;;;;5134381;27;20110;-76
2023/03/27 01:14:14;;;;;;;20.73;8.88;;;2.60;99.90;;;;;;5133831;27;20051;-76
2023/03/27 01:16:58;;;;;;;13.88;8.73;;;2.60;99.90;;;;;;5134405;27;20038;-76
2023/03/27 01:19:48;;;;;;;17.67;9.27;;;2.60;99.90;;;;;;5133773;27;20111;-76
2023/03/27 01:22:55;;;;;;;17.63;9.57;;;2.50;99.90;;;;;;5133687;27;20043;-75
2023/03/27 01:25:49;;;;;;;19.20;10.02;;;2.50;99.90;;;;;;5098563;27;20062;-75
2023/03/27 01:28:21;;;;;;;15.73;9.38;;;2.50;99.90;;;;;;5133806;27;20031;-75
2023/03/27 01:30:51;;;;;;;21.00;9.80;;;2.50;99.90;;;;;;5134302;27;20027;-75
2023/03/27 01:33:37;;;;;;;22.88;10.35;;;2.40;99.90;;;;;;5133718;27;20030;-75
2023/03/27 01:36:23;;;;;;;20.67;9.93;;;2.40;99.90;;;;;;5134395;27;20132;-75
2023/03/27 01:39:26;;;;;;;17.48;8.50;;;2.40;99.90;;;;;;5134426;27;20027;-76
2023/03/27 01:42:31;;;;;;;15.13;8.00;;;2.30;99.90;;;;;;5134556;27;20027;-74
2023/03/27 01:45:18;;;;;;;13.32;8.30;;;2.30;99.90;;;;;;5131738;27;20031;-74
2023/03/27 01:47:46;;;;;;;13.93;7.55;;;2.30;99.90;;;;;;5133999;27;20027;-74
2023/03/27 01:50:30;;;;;;;17.45;8.10;;;2.20;99.90;;;;;;5133529;27;20342;-75
2023/03/27 01:53:23;;;;;;;15.25;9.07;;;2.20;99.90;;;;;;5133430;27;20336;-75
2023/03/27 01:56:17;;;;;;;17.67;8.90;;;2.20;99.90;;;;;;5132556;27;20050;-74
2023/03/27 01:58:48;;;;;;;16.92;8.00;;;2.30;99.90;;;;;;5115026;27;20038;-75
2023/03/27 02:01:21;;;;;;;22.05;8.75;;;2.30;99.90;;;;;;5132776;27;20100;-76
2023/03/27 02:03:50;;;;;;;14.40;7.00;;;2.20;99.90;;;;;;5133601;27;20388;-76
2023/03/27 02:06:27;;;;;;;11.73;7.47;;;2.20;99.90;;;;;;5132662;27;20489;-76
2023/03/27 02:09:04;;;;;;;17.50;7.88;;;2.20;99.90;;;;;;5133573;27;20042;-75
2023/03/27 02:11:56;;;;;;;14.45;8.07;;;2.20;99.90;;;;;;5133223;27;20531;-75
2023/03/27 02:14:33;;;;;;;13.70;8.35;;;2.20;99.90;;;;;;5118909;27;20035;-76
2023/03/27 02:17:06;;;;;;;20.45;9.35;;;2.10;99.90;;;;;;5133544;27;20023;-74
2023/03/27 02:19:46;;;;;;;16.42;8.57;;;2.10;99.90;;;;;;5114217;27;20126;-75
2023/03/27 02:22:13;;;;;;;14.65;8.57;;;2.00;99.90;;;;;;5132170;27;20051;-75
2023/03/27 02:24:40;;;;;;;15.35;7.95;;;2.00;99.90;;;;;;5133502;27;20142;-75
2023/03/27 02:27:39;;;;;;;11.32;7.95;;;2.00;99.90;;;;;;5132816;27;20032;-75
2023/03/27 02:30:17;;;;;;;16.15;8.70;;;2.00;99.90;;;;;;5132891;27;20136;-76
2023/03/27 02:32:59;;;;;;;19.27;9.35;;;1.90;99.90;;;;;;5132982;27;20019;-76
2023/03/27 02:35:39;;;;;;;15.33;9.07;;;1.80;99.90;;;;;;5132033;27;20023;-75
2023/03/27 02:38:18;;;;;;;17.42;9.45;;;1.80;99.90;;;;;;5132491;27;20554;-76
2023/03/27 02:40:58;;;;;;;16.92;8.88;;;1.80;99.90;;;;;;5132824;27;20019;-76
2023/03/27 02:43:43;;;;;;;16.60;8.98;;;1.90;99.90;;;;;;5113544;27;20042;-76
2023/03/27 02:46:16;;;;;;;13.63;7.93;;;1.80;99.90;;;;;;5132814;27;20023;-76
2023/03/27 02:48:47;;;;;;;18.35;8.02;;;1.70;99.90;;;;;;5132456;27;20027;-75
2023/03/27 02:51:29;;;;;;;13.05;8.07;;;1.70;99.90;;;;;;5132163;27;20451;-78
2023/03/27 02:54:02;;;;;;;13.48;7.63;;;1.60;99.90;;;;;;5132127;27;20384;-76
2023/03/27 02:56:32;;;;;;;13.73;7.63;;;1.70;99.90;;;;;;5132184;27;20035;-75
2023/03/27 02:59:34;;;;;;;12.98;8.30;;;1.60;99.90;;;;;;5132504;27;20046;-75
2023/03/27 03:02:11;;;;;;;16.43;8.30;;;1.70;99.90;;;;;;5112402;27;20039;-76
2023/03/27 03:04:45;;;;;;;13.40;7.95;;;1.70;99.90;;;;;;5131862;27;20027;-75
2023/03/27 03:07:12;;;;;;;13.20;6.78;;;1.60;99.90;;;;;;5132251;27;20049;-75
2023/03/27 03:09:43;;;;;;;16.45;9.27;;;1.70;99.90;;;;;;5132232;27;20055;-75
2023/03/27 03:12:09;;;;;;;14.82;7.82;;;1.60;99.90;;;;;;5132346;27;20321;-75
2023/03/27 03:14:38;;;;;;;16.63;7.72;;;1.60;99.90;;;;;;5131628;27;20023;-75
2023/03/27 03:17:04;;;;;;;11.85;7.88;;;1.60;99.90;;;;;;5132291;27;20071;-75
2023/03/27 03:19:31;;;;;;;12.43;7.55;;;1.60;99.90;;;;;;5131493;27;20046;-76
2023/03/27 03:21:57;;;;;;;12.68;7.60;;;1.70;99.90;;;;;;5131806;27;20127;-75
2023/03/27 03:24:22;;;;;;;19.42;8.15;;;1.60;99.90;;;;;;5131060;27;20458;-76
2023/03/27 03:26:49;;;;;;;11.30;7.53;;;1.50;99.90;;;;;;5131874;27;20437;-76
2023/03/27 03:29:16;;;;;;;13.18;6.97;;;1.50;99.90;;;;;;5131403;27;20078;-78
2023/03/27 03:31:42;;;;;;;13.93;7.57;;;1.50;99.90;;;;;;5131725;27;20027;-76
2023/03/27 03:34:10;;;;;;;17.02;7.45;;;1.50;99.90;;;;;;5131590;27;20033;-76
2023/03/27 03:36:36;;;;;;;12.60;7.50;;;1.60;99.90;;;;;;5112519;27;20171;-76
2023/03/27 03:39:03;;;;;;;12.57;7.30;;;1.60;99.90;;;;;;5130862;27;20023;-76
2023/03/27 03:41:28;;;;;;;14.70;7.55;;;1.60;99.90;;;;;;5130743;27;20440;-76
2023/03/27 03:43:54;;;;;;;13.30;7.53;;;1.60;99.90;;;;;;5113089;27;20028;-76
2023/03/27 03:46:20;;;;;;;15.02;6.80;;;1.50;99.90;;;;;;5130825;27;20027;-76
2023/03/27 03:48:46;;;;;;;13.70;7.80;;;1.50;99.90;;;;;;5131474;27;20510;-76
2023/03/27 03:51:11;;;;;;;13.80;8.07;;;1.50;99.90;;;;;;5131482;27;20023;-76
2023/03/27 03:53:37;;;;;;;11.57;7.60;;;1.50;99.90;;;;;;5095459;28;20079;-76
2023/03/27 03:56:03;;;;;;;13.77;7.78;;;1.50;99.90;;;;;;5131523;27;20031;-75
2023/03/27 03:58:29;;;;;;;13.57;7.90;;;1.40;99.90;;;;;;5130945;27;20468;-77
2023/03/27 04:00:54;;;;;;;22.80;8.07;;;1.40;99.90;;;;;;5131565;28;20377;-76
2023/03/27 04:03:20;;;;;;;13.02;7.35;;;1.40;99.90;;;;;;5130717;28;20482;-76
2023/03/27 04:05:46;;;;;;;13.93;6.57;;;1.40;99.90;;;;;;5130985;28;20118;-75
2023/03/27 04:08:12;;;;;;;18.17;7.53;;;1.40;99.90;;;;;;5131373;28;20131;-75
2023/03/27 04:10:40;;;;;;;13.15;7.28;;;1.30;99.90;;;;;;5130536;28;20519;-74
2023/03/27 04:13:06;;;;;;;17.13;7.57;;;1.30;99.90;;;;;;5131251;28;20053;-75
2023/03/27 04:15:32;;;;;;;14.50;7.43;;;1.30;99.90;;;;;;5130455;28;20031;-74
2023/03/27 04:17:58;;;;;;;13.82;7.30;;;1.30;99.90;;;;;;5131016;28;20074;-74
2023/03/27 04:20:27;;;;;;;11.63;7.25;;;1.30;99.90;;;;;;5130562;28;20159;-75
2023/03/27 04:22:53;;;;;;;11.30;7.20;;;1.30;99.90;;;;;;5130999;28;20100;-76
2023/03/27 04:25:22;;;;;;;12.93;7.70;;;1.30;99.90;;;;;;5130890;28;20035;-78
2023/03/27 04:27:51;;;;;;;12.45;7.47;;;1.20;99.90;;;;;;5131416;28;20031;-76
2023/03/27 04:30:22;;;;;;;13.43;7.35;;;1.20;99.90;;;;;;5131065;28;20075;-78
2023/03/27 04:32:51;;;;;;;15.90;8.13;;;1.20;99.90;;;;;;5131208;28;20072;-76
2023/03/27 04:35:19;;;;;;;14.25;7.30;;;1.10;99.90;;;;;;5130929;28;20118;-78
2023/03/27 04:37:46;;;;;;;14.80;7.03;;;1.10;99.90;;;;;;5130739;28;20100;-76
2023/03/27 04:40:14;;;;;;;12.07;7.53;;;1.00;99.90;;;;;;5112567;28;20026;-76
2023/03/27 04:42:42;;;;;;;14.23;6.53;;;1.00;99.90;;;;;;5130364;28;20187;-76
2023/03/27 04:45:17;;;;;;;12.82;7.05;;;1.00;99.90;;;;;;5131108;28;20027;-76
2023/03/27 04:47:43;;;;;;;17.77;7.63;;;1.00;99.90;;;;;;5130410;28;20046;-77
2023/03/27 04:50:11;;;;;;;19.42;7.80;;;1.00;99.90;;;;;;5131525;27;20019;-74
2023/03/27 04:52:37;;;;;;;11.32;7.82;;;1.10;99.90;;;;;;5134215;27;20065;-74
2023/03/27 04:55:04;;;;;;;11.07;7.50;;;1.10;99.90;;;;;;5134658;27;20054;-74
2023/03/27 04:57:31;;;;;;;11.48;8.15;;;1.00;99.90;;;;;;5133985;27;20106;-74
2023/03/27 04:59:58;;;;;;;14.80;6.97;;;1.00;99.90;;;;;;5134267;27;20302;-75
2023/03/27 05:02:27;;;;;;;14.93;7.47;;;1.10;99.90;;;;;;5134233;27;20020;-75
2023/03/27 05:05:00;;;;;;;11.15;7.50;;;1.10;99.90;;;;;;5134276;27;20103;-75
2023/03/27 05:07:27;;;;;;;14.40;7.35;;;1.10;99.90;;;;;;5134123;27;20028;-77
2023/03/27 05:09:53;;;;;;;15.57;8.50;;;1.10;99.90;;;;;;5135160;27;20372;-76
2023/03/27 05:12:20;;;;;;;16.00;7.85;;;1.10;99.90;;;;;;5134981;27;20052;-75
2023/03/27 05:14:47;;;;;;;15.63;7.97;;;1.00;99.90;;;;;;5134765;27;20027;-75
2023/03/27 05:17:14;;;;;;;13.88;8.18;;;1.00;99.90;;;;;;5134831;27;20019;-74
2023/03/27 05:19:40;;;;;;;17.35;9.13;;;0.90;99.90;;;;;;5134248;27;20053;-75
2023/03/27 05:22:06;;;;;;;14.43;8.32;;;0.90;99.90;;;;;;5134326;27;20118;-75
2023/03/27 05:24:32;;;;;;;15.73;7.95;;;0.90;99.90;;;;;;5133398;27;20027;-74
2023/03/27 05:26:58;;;;;;;13.70;7.88;;;0.90;99.90;;;;;;5134379;27;20031;-75
2023/03/27 05:29:24;;;;;;;16.92;8.38;;;0.90;99.90;;;;;;5133788;27;20448;-79
2023/03/27 05:31:50;;;;;;;18.13;8.75;;;0.90;99.90;;;;;;5134065;27;20027;-75
2023/03/27 05:34:18;;;;;;;20.50;9.00;;;0.90;99.90;;;;;;5134305;27;20030;-75
2023/03/27 05:36:44;;;;;;;15.30;8.48;;;0.90;99.90;;;;;;5133603;27;20105;-75
2023/03/27 05:39:10;;;;;;;19.48;9.15;;;0.90;99.90;;;;;;5134210;27;20030;-75
2023/03/27 05:41:35;;;;;;;17.45;8.45;;;0.90;99.90;;;;;;5134235;27;20384;-76
2023/03/27 05:44:02;;;;;;;17.02;8.77;;;0.90;99.90;;;;;;5135070;27;20023;-76
2023/03/27 05:46:28;;;;;;;13.15;8.48;;;1.00;99.90;;;;;;5133940;27;20086;-75
2023/03/27 05:48:54;;;;;;;13.98;8.10;;;0.90;99.90;;;;;;5133963;27;20170;-74
2023/03/27 05:51:19;;;;;;;15.63;8.60;;;0.90;99.90;;;;;;5133733;27;20054;-75
2023/03/27 05:53:45;;;;;;;14.23;8.50;;;0.90;99.90;;;;;;5114735;27;20185;-76
2023/03/27 05:56:11;;;;;;;16.73;8.98;;;1.00;99.90;;;;;;5133895;27;20083;-75
2023/03/27 05:58:37;;;;;;;15.63;8.63;;;1.00;99.90;;;;;;5133436;27;20023;-75
2023/03/27 06:01:04;;;;;;;17.58;8.23;;;1.00;99.90;;;;;;5134009;27;20115;-75
2023/03/27 06:03:34;;;;;;;16.90;8.85;;;1.00;99.90;;;;;;5113629;27;20027;-75
2023/03/27 06:06:05;;;;;;;21.08;8.88;;;1.00;99.90;;;;;;5133343;27;20455;-75
2023/03/27 06:08:31;;;;;;;16.20;9.30;;;1.00;99.90;;;;;;5133163;27;20035;-75
2023/03/27 06:10:57;;;;;;;17.02;8.27;;;1.00;99.90;;;;;;5133984;27;20338;-75
2023/03/27 06:13:23;;;;;;;14.80;8.18;;;0.90;99.90;;;;;;5133764;27;20177;-75
2023/03/27 06:15:51;;;;;;;15.10;7.95;;;0.80;99.90;;;;;;5132861;27;20106;-75
2023/03/27 06:18:17;;;;;;;15.77;7.85;;;0.80;99.90;;;;;;5133576;27;20042;-75
2023/03/27 06:20:43;;;;;;;11.55;7.60;;;0.70;99.90;;;;;;5132444;27;20028;-75
2023/03/27 06:23:09;;;;;;;14.48;8.73;;;0.70;99.90;;;;;;5133381;27;20439;-76
2023/03/27 06:25:37;;;;;;;18.67;9.90;;;0.70;99.90;;;;;;5133288;27;20027;-75
2023/03/27 06:28:06;;;;;;;15.52;8.85;;;0.80;99.90;;;;;;5133219;27;20087;-76
2023/03/27 06:30:32;;;;;;;16.15;9.32;;;0.80;99.90;;;;;;5132903;27;20413;-76
2023/03/27 06:32:59;;;;;;;19.10;9.80;;;0.90;99.90;;;;;;5133763;27;20083;-76
2023/03/27 06:35:27;;;;;;;14.65;9.02;;;0.90;99.90;;;;;;5133221;27;20066;-75
2023/03/27 06:37:54;;;;;;;18.00;10.13;;;0.90;99.90;;;;;;5132988;27;20108;-76
2023/03/27 06:40:23;;;;;;;19.88;9.95;;;1.10;99.90;;;;;;5132907;27;20076;-75
2023/03/27 06:43:21;;;;;;;13.98;9.18;;;1.00;99.90;;;;;;5132490;27;20127;-76
2023/03/27 06:45:49;;;;;;;15.48;9.35;;;1.00;99.90;;;;;;5111906;27;20043;-75
2023/03/27 06:48:17;;;;;;;18.90;9.73;;;1.10;99.90;;;;;;5132961;27;20050;-76
2023/03/27 06:50:45;;;;;;;18.30;9.75;;;1.20;99.90;;;;;;5132039;27;20057;-76
2023/03/27 06:53:14;;;;;;;16.23;8.95;;;1.40;99.90;;;;;;5132426;27;20030;-76
2023/03/27 06:55:39;;;;;;;16.23;8.75;;;1.60;99.90;;;;;;5132015;27;20027;-76
2023/03/27 06:58:05;;;;;;;21.42;8.95;;;1.60;99.90;;;;;;5132924;27;20076;-76
2023/03/27 07:00:34;;;;;;;15.32;8.65;;;1.80;99.90;;;;;;5132059;27;20422;-77
2023/03/27 07:03:05;;;;;;;14.65;8.43;;;1.90;99.90;;;;;;5132790;27;20035;-74
2023/03/27 07:05:35;;;;;;;13.07;7.43;;;2.10;99.90;;;;;;5132237;27;20031;-76
2023/03/27 07:08:03;;;;;;;14.85;8.25;;;2.30;99.90;;;;;;5114999;27;20063;-75
2023/03/27 07:10:28;;;;;;;14.30;8.10;;;2.40;99.90;;;;;;5132303;27;20086;-78
2023/03/27 07:12:54;;;;;;;18.02;7.55;;;2.60;99.90;;;;;;5131578;27;20113;-76
2023/03/27 07:15:21;;;;;;;14.05;8.00;;;2.70;99.90;;;;;;5131955;27;20080;-75
2023/03/27 07:17:57;;;;;;;12.40;7.75;;;2.80;99.90;;;;;;5131399;27;20023;-74
2023/03/27 07:20:26;;;;;;;12.65;7.97;;;3.00;99.90;;;;;;5132312;27;20091;-75
2023/03/27 07:22:56;;;;;;;11.43;7.55;;;3.10;99.90;;;;;;5112888;27;20039;-75
2023/03/27 07:25:27;;;;;;;16.38;8.20;;;3.20;99.90;;;;;;5132037;27;20479;-75
2023/03/27 07:28:15;;;;;;;13.45;7.72;;;3.30;99.90;;;;;;5131840;27;20032;-75
2023/03/27 07:30:41;;;;;;;14.18;7.85;;;3.40;99.90;;;;;;5112803;27;20023;-76
2023/03/27 07:33:08;;;;;;;15.50;8.05;;;3.50;99.90;;;;;;5131808;27;20380;-75
2023/03/27 07:35:39;;;;;;;15.93;7.22;;;3.60;99.90;;;;;;5112611;27;20179;-76
2023/03/27 07:38:05;;;;;;;21.27;7.87;;;3.70;99.90;;;;;;5131968;27;20424;-75
2023/03/27 07:40:32;;;;;;;14.45;8.25;;;3.90;99.90;;;;;;5131797;27;20023;-78
2023/03/27 07:42:58;;;;;;;18.45;8.75;;;4.00;99.90;;;;;;5131520;27;20027;-76
2023/03/27 07:45:23;;;;;;;15.45;7.82;;;4.00;99.90;;;;;;5131600;27;20035;-76
2023/03/27 07:47:49;;;;;;;16.95;8.30;;;4.10;99.90;;;;;;5131282;27;20031;-75
2023/03/27 07:50:19;;;;;;;14.30;7.78;;;4.20;99.90;;;;;;5113180;27;20419;-75
2023/03/27 07:52:45;;;;;;;19.35;9.35;;;4.30;99.90;;;;;;5131124;27;20019;-76
2023/03/27 07:55:16;;;;;;;17.63;8.38;;;4.40;99.90;;;;;;5113198;27;20107;-75
2023/03/27 07:57:47;;;;;;;17.27;8.50;;;4.50;99.90;;;;;;5130842;27;20464;-76
2023/03/27 08:00:15;;;;;;;17.90;9.00;;;4.60;99.90;;;;;;5131582;27;20254;-76
2023/03/27 08:02:42;;;;;;;15.13;8.80;;;4.70;99.90;;;;;;5130873;28;20439;-76
2023/03/27 08:05:10;;;;;;;17.38;8.68;;;4.80;99.90;;;;;;5131541;28;20035;-74
2023/03/27 08:07:35;;;;;;;17.17;9.02;;;5.00;99.90;;;;;;5115884;28;20020;-75
2023/03/27 08:10:03;;;;;;;15.07;8.52;;;5.00;99.90;;;;;;5112225;28;20476;-75
2023/03/27 08:12:31;;;;;;;18.25;9.63;;;5.20;99.90;;;;;;5111251;28;20032;-76
2023/03/27 08:14:57;;;;;;;14.98;8.30;;;5.20;99.90;;;;;;5110284;28;20027;-75
2023/03/27 08:17:26;;;;;;;40.97;9.45;;;5.30;99.90;;;;;;5092787;28;20035;-75
2023/03/27 08:19:52;;;;;;;44.20;10.73;;;5.50;99.90;;;;;;5110361;28;20028;-75
2023/03/27 08:22:19;;;;;;;14.88;4.95;;;5.60;99.90;;;;;;5110391;28;20051;-75
2023/03/27 08:24:46;;;;;;;10.60;4.80;;;5.80;99.90;;;;;;5109730;28;20084;-76
2023/03/27 08:27:12;;;;;;;8.13;4.05;;;6.00;99.90;;;;;;5114933;28;20027;-75
2023/03/27 08:29:38;;;;;;;5.68;3.80;;;6.10;99.90;;;;;;5114624;28;20032;-76
2023/03/27 08:32:05;;;;;;;6.10;3.47;;;6.20;99.90;;;;;;5115084;28;20080;-75
2023/03/27 08:34:30;;;;;;;14.02;4.05;;;6.40;99.90;;;;;;5115197;28;20057;-75
2023/03/27 08:36:56;;;;;;;9.57;3.40;;;6.50;99.90;;;;;;5096130;28;20023;-76
2023/03/27 08:39:22;;;;;;;18.23;4.43;;;6.60;99.90;;;;;;5114988;28;20016;-76
2023/03/27 08:41:53;;;;;;;11.20;3.22;;;6.70;99.90;;;;;;5114352;28;20027;-75
2023/03/27 08:44:22;;;;;;;10.93;3.67;;;6.70;99.90;;;;;;5114532;28;20493;-74
2023/03/27 08:47:04;;;;;;;15.00;3.80;;;6.70;99.90;;;;;;5113682;28;20038;-75
2023/03/27 08:49:35;;;;;;;10.80;3.67;;;6.70;99.90;;;;;;5114332;28;20016;-76
2023/03/27 08:52:07;;;;;;;9.23;2.90;;;6.60;99.90;;;;;;5123536;27;20035;-75
2023/03/27 08:54:36;;;;;;;9.02;3.20;;;6.70;99.90;;;;;;5114493;28;20028;-74
2023/03/27 08:57:16;;;;;;;4.93;3.00;;;6.80;99.90;;;;;;5113590;28;20104;-76
2023/03/27 08:59:42;;;;;;;5.78;3.20;;;6.90;99.90;;;;;;5113472;28;20037;-75
2023/03/27 09:02:26;;;;;;;10.38;3.40;;;7.00;99.90;;;;;;5113998;28;20107;-74
2023/03/27 09:05:10;;;;;;;8.95;3.33;;;7.00;99.90;;;;;;5113217;28;20024;-74
2023/03/27 09:07:59;;;;;;;8.00;3.22;;;7.10;99.90;;;;;;5113785;28;20035;-75
2023/03/27 09:10:42;;;;;;;12.70;3.97;;;7.10;99.90;;;;;;5099786;28;20058;-74
2023/03/27 09:13:14;;;;;;;9.20;3.10;;;7.20;99.90;;;;;;5113620;28;20057;-75
2023/03/27 09:15:45;;;;;;;11.38;3.33;;;7.40;99.90;;;;;;5113116;28;20031;-77
2023/03/27 09:18:52;;;;;;;5.68;2.20;;;7.50;99.90;;;;;;5113773;28;20106;-75
2023/03/27 09:21:26;;;;;;;9.48;2.22;;;7.60;99.90;;;;;;5113466;28;20456;-77
2023/03/27 09:23:54;;;;;;;6.07;1.80;;;7.60;99.90;;;;;;5112980;28;20036;-77
2023/03/27 09:26:25;;;;;;;4.82;2.25;;;7.70;99.90;;;;;;5113736;28;20310;-76
2023/03/27 09:28:55;;;;;;;8.35;2.13;;;7.70;99.90;;;;;;5113031;28;20032;-77
2023/03/27 09:31:25;;;;;;;3.45;1.48;;;7.80;99.90;;;;;;5113635;28;20031;-77
2023/03/27 09:33:51;;;;;;;9.82;1.73;;;7.90;99.90;;;;;;5094716;28;20047;-78
2023/03/27 09:36:17;;;;;;;5.70;1.60;;;7.90;99.90;;;;;;5113273;28;20031;-77
2023/03/27 09:38:49;;;;;;;7.22;1.80;;;8.00;99.90;;;;;;5076850;28;20074;-78
2023/03/27 09:41:23;;;;;;;6.50;1.63;;;8.00;99.90;;;;;;5113661;28;20059;-77
2023/03/27 09:44:04;;;;;;;18.30;2.55;;;8.10;99.90;;;;;;5112647;28;20031;-77
2023/03/27 09:46:33;;;;;;;12.55;1.98;;;8.10;99.90;;;;;;5113296;28;20028;-78
2023/03/27 09:49:08;;;;;;;62.95;8.20;;;8.20;99.90;;;;;;5112866;28;20020;-78
2023/03/27 09:51:40;;;;;;;95.50;14.07;;;8.20;99.90;;;;;;5113204;28;20099;-77
2023/03/27 09:54:06;;;;;;;7.18;2.30;;;8.20;99.90;;;;;;5113303;28;20425;-76
2023/03/27 09:56:58;;;;;;;58.15;6.45;;;8.40;99.90;;;;;;5113187;28;20035;-77
2023/03/27 09:59:39;;;;;;;67.95;8.55;;;8.40;99.90;;;;;;5113097;28;20151;-76
2023/03/27 10:02:26;;;;;;;80.28;9.73;;;8.40;99.90;;;;;;5112728;28;20030;-76
2023/03/27 10:04:58;;;;;;;7.07;1.88;;;8.40;99.90;;;;;;5112410;28;20117;-76
2023/03/27 10:07:25;;;;;;;5.13;1.52;;;8.40;99.90;;;;;;5112960;28;20084;-77
2023/03/27 10:10:12;;;;;;;12.95;2.85;;;8.50;99.90;;;;;;5112559;28;20028;-77
2023/03/27 10:12:40;;;;;;;10.30;1.80;;;8.60;99.90;;;;;;5113425;28;20114;-75
2023/03/27 10:15:37;;;;;;;7.13;1.33;;;8.70;99.90;;;;;;5112865;28;20035;-76
2023/03/27 10:18:06;;;;;;;4.32;1.50;;;8.80;99.90;;;;;;5113469;28;20142;-77
2023/03/27 10:20:33;;;;;;;7.03;1.65;;;8.70;99.90;;;;;;5113424;28;20031;-76
2023/03/27 10:23:01;;;;;;;28.08;4.55;;;8.70;99.90;;;;;;5112258;28;20047;-76
2023/03/27 10:25:44;;;;;;;11.60;2.15;;;8.80;99.90;;;;;;5112751;28;20093;-77
2023/03/27 10:28:12;;;;;;;18.08;2.95;;;8.80;99.90;;;;;;5113454;28;20038;-77
2023/03/27 10:30:39;;;;;;;10.02;2.45;;;8.80;99.90;;;;;;5113275;28;20027;-78
2023/03/27 10:33:06;;;;;;;6.85;1.55;;;8.90;99.90;;;;;;5112210;28;20023;-78
2023/03/27 10:35:42;;;;;;;11.48;1.98;;;9.00;99.90;;;;;;5112383;28;20027;-77
2023/03/27 10:38:27;;;;;;;6.03;1.20;;;9.10;99.90;;;;;;5112431;28;20103;-77
2023/03/27 10:40:55;;;;;;;7.25;1.42;;;9.10;99.90;;;;;;5111955;28;20055;-78
2023/03/27 10:43:39;;;;;;;22.38;3.60;;;9.00;99.90;;;;;;5112361;28;20020;-77
2023/03/27 10:46:20;;;;;;;4.97;1.35;;;8.90;99.90;;;;;;5112200;28;20105;-78
2023/03/27 10:49:08;;;;;;;10.32;1.85;;;9.00;99.90;;;;;;5092953;28;20027;-78
2023/03/27 10:51:53;;;;;;;9.27;1.60;;;9.10;99.90;;;;;;5112393;28;20039;-77
2023/03/27 10:54:38;;;;;;;17.60;3.05;;;9.10;99.90;;;;;;5111917;28;20023;-76
2023/03/27 10:57:07;;;;;;;5.20;1.30;;;9.10;99.90;;;;;;5111576;28;20609;-76
2023/03/27 11:00:18;;;;;;;6.43;1.48;;;9.10;99.90;;;;;;5111993;28;20453;-76
2023/03/27 11:02:59;;;;;;;10.77;1.90;;;9.10;99.90;;;;;;5112638;28;20031;-80
2023/03/27 11:05:38;;;;;;;5.32;1.38;;;8.80;99.90;;;;;;5114409;28;20094;-76
2023/03/27 11:08:27;;;;;;;8.90;1.90;;;8.90;99.90;;;;;;5113783;28;20202;-77
2023/03/27 11:10:59;;;;;;;10.05;1.48;;;9.00;99.90;;;;;;5049046;28;20038;-78
2023/03/27 11:13:30;;;;;;;10.25;1.80;;;9.00;99.90;;;;;;5114077;28;20126;-77
2023/03/27 11:16:05;;;;;;;7.80;1.40;;;9.00;99.90;;;;;;5094674;28;20035;-77
2023/03/27 11:18:39;;;;;;;7.55;1.55;;;8.90;99.90;;;;;;5113205;28;20544;-77
2023/03/27 11:21:12;;;;;;;8.05;1.83;;;9.00;99.90;;;;;;5093290;28;20320;-77
2023/03/27 11:24:09;;;;;;;5.90;1.45;;;9.10;99.90;;;;;;5111913;28;20075;-76
2023/03/27 11:26:49;;;;;;;13.88;2.20;;;9.10;99.90;;;;;;5111382;28;20038;-77
2023/03/27 11:29:31;;;;;;;9.40;1.30;;;9.20;99.90;;;;;;5111016;28;20048;-77
2023/03/27 11:32:04;;;;;;;8.75;2.20;;;9.30;99.90;;;;;;5110991;28;20035;-77
2023/03/27 11:34:36;;;;;;;11.95;1.70;;;9.30;99.90;;;;;;5111445;28;20053;-76
2023/03/27 11:37:27;;;;;;;3.37;1.30;;;9.30;99.90;;;;;;5110797;28;20077;-77
2023/03/27 11:40:11;;;;;;;7.07;1.80;;;9.30;99.90;;;;;;5111040;28;20032;-76
2023/03/27 11:42:42;;;;;;;66.43;7.25;;;9.10;99.90;;;;;;5111357;28;20088;-78
2023/03/27 11:45:22;;;;;;;18.30;2.05;;;9.20;99.90;;;;;;5110962;28;20031;-78
2023/03/27 11:48:00;;;;;;;28.40;3.95;;;9.30;99.90;;;;;;5111045;28;20028;-81
2023/03/27 11:50:31;;;;;;;12.15;2.05;;;9.20;99.90;;;;;;5111344;28;20366;-78
2023/03/27 11:53:12;;;;;;;30.15;4.05;;;9.30;99.90;;;;;;5110627;28;20024;-77
2023/03/27 11:55:59;;;;;;;7.43;2.05;;;9.30;99.90;;;;;;5092520;28;20033;-78
2023/03/27 11:58:33;;;;;;;10.48;2.05;;;9.30;99.90;;;;;;5111111;28;20051;-78
2023/03/27 12:01:00;;;;;;;7.80;1.42;;;9.30;99.90;;;;;;5109714;28;20028;-78
2023/03/27 12:03:35;;;;;;;6.47;1.40;;;9.20;99.90;;;;;;5111206;28;20030;-77
2023/03/27 12:06:32;;;;;;;9.82;1.63;;;9.20;99.90;;;;;;5110617;28;20031;-78
2023/03/27 12:09:08;;;;;;;6.07;1.75;;;9.20;99.90;;;;;;5110691;28;20023;-78
2023/03/27 12:11:44;;;;;;;8.30;1.58;;;9.10;99.90;;;;;;5111452;28;20027;-78
2023/03/27 12:14:22;;;;;;;7.90;2.00;;;9.20;99.90;;;;;;5110413;28;20089;-78
2023/03/27 12:17:13;;;;;;;5.78;1.30;;;9.30;99.90;;;;;;5110907;28;20106;-78
2023/03/27 12:20:01;;;;;;;8.90;1.70;;;9.40;99.90;;;;;;5110673;28;20080;-78
2023/03/27 12:22:37;;;;;;;6.75;1.92;;;9.40;99.90;;;;;;5124245;28;20047;-77
2023/03/27 12:25:25;;;;;;;6.68;1.80;;;9.60;99.90;;;;;;5130894;28;20061;-76
2023/03/27 12:28:08;;;;;;;6.65;1.73;;;9.60;99.90;;;;;;5131271;28;20027;-80
2023/03/27 12:31:02;;;;;;;4.40;1.35;;;9.70;99.90;;;;;;5112619;28;20038;-77
2023/03/27 12:33:43;;;;;;;4.20;1.50;;;9.80;99.90;;;;;;5131217;28;20372;-76
2023/03/27 12:36:14;;;;;;;3.58;1.35;;;9.90;99.90;;;;;;5128252;28;20045;-77
2023/03/27 12:38:42;;;;;;;11.00;2.17;;;9.80;99.90;;;;;;5132362;28;20034;-77
2023/03/27 12:41:11;;;;;;;6.25;1.85;;;9.80;99.90;;;;;;5130915;28;20020;-77
2023/03/27 12:43:42;;;;;;;152.15;21.63;;;9.90;99.90;;;;;;5109296;28;20069;-78
2023/03/27 12:46:23;;;;;;;17.70;3.03;;;10.00;99.90;;;;;;5110697;28;20028;-77
2023/03/27 12:49:23;;;;;;;9.30;1.98;;;9.80;99.90;;;;;;5092327;28;20468;-80
2023/03/27 12:51:52;;;;;;;9.10;3.00;;;10.00;99.90;;;;;;5106057;28;20039;-79
2023/03/27 12:54:24;;;;;;;35.53;4.65;;;10.00;99.90;;;;;;5110303;28;20050;-77
2023/03/27 12:57:04;;;;;;;13.30;2.47;;;10.10;99.90;;;;;;5110340;28;20380;-79
2023/03/27 12:59:38;;;;;;;5.47;2.08;;;10.10;99.90;;;;;;5110390;28;20123;-75
2023/03/27 13:02:07;;;;;;;63.33;7.22;;;10.00;99.90;;;;;;5091428;28;20028;-74
2023/03/27 13:04:51;;;;;;;5.88;2.17;;;9.90;99.90;;;;;;5110567;28;20456;-75
2023/03/27 13:07:31;;;;;;;28.27;4.32;;;10.00;99.90;;;;;;5109938;28;20027;-75
2023/03/27 13:10:07;;;;;;;10.00;2.13;;;9.90;99.90;;;;;;5109909;28;20125;-76
2023/03/27 13:12:54;;;;;;;85.22;10.85;;;9.90;99.90;;;;;;5112891;28;20031;-75
2023/03/27 13:15:50;;;;;;;7.57;2.17;;;10.10;99.90;;;;;;5122037;27;20035;-75